sensor_id;sensor_type;location;lat;lon;timestamp;temperature;humidity
42715;DHT22;28351;51.480;5.706;2024-01-15T00:02:18;1.30;99.90
42715;DHT22;28351;51.480;5.706;2024-01-15T00:04:44;1.30;99.90
42715;DHT22;28351;51.480;5.706;2024-01-15T00:07:10;1.30;99.90
42715;DHT22;28351;51.480;5.706;2024-01-15T00:09:37;1.40;99.90
42715;DHT22;28351;51.480;5.706;2024-01-15T00:12:03;1.40;99.90
42715;DHT22;28351;51.480;5.706;2024-01-15T00:14:29;1.40;99.90
42715;DHT22;28351;51.480;5.706;2024-01-15T00:16:59;1.30;99.90
42715;DHT22;28351;51.480;5.706;2024-01-15T00:19:31;1.30;99.90
42715;DHT22;28351;51.480;5.706;2024-01-15T00:21:57;1.30;99.90
42715;DHT22;28351;51.480;5.706;2024-01-15T00:24:23;1.30;99.90
42715;DHT22;28351;51.480;5.706;2024-01-15T00:26:48;1.30;99.90
42715;DHT22;28351;51.480;5.706;2024-01-15T00:29:14;1.30;99.90
42715;DHT22;28351;51.480;5.706;2024-01-15T00:31:39;1.30;99.90
42715;DHT22;28351;51.480;5.706;2024-01-15T00:34:06;1.30;99.90
42715;DHT22;28351;51.480;5.706;2024-01-15T00:36:31;1.30;99.90
42715;DHT22;28351;51.480;5.706;2024-01-15T00:38:59;1.30;99.90
42715;DHT22;28351;51.480;5.706;2024-01-15T00:41:24;1.30;99.90
42715;DHT22;28351;51.480;5.706;2024-01-15T00:43:50;1.30;99.90
42715;DHT22;28351;51.480;5.706;2024-01-15T00:46:16;1.30;99.90
42715;DHT22;28351;51.480;5.706;2024-01-15T00:48:42;1.30;99.90
42715;DHT22;28351;51.480;5.706;2024-01-15T00:51:08;1.30;99.90
42715;DHT22;28351;51.480;5.706;2024-01-15T00:53:33;1.30;99.90
42715;DHT22;28351;51.480;5.706;2024-01-15T00:55:59;1.40;99.90
42715;DHT22;28351;51.480;5.706;2024-01-15T00:58:25;1.30;99.90
42715;DHT22;28351;51.480;5.706;2024-01-15T01:03:20;1.30;99.90
42715;DHT22;28351;51.480;5.706;2024-01-15T01:05:48;1.30;99.90
42715;DHT22;28351;51.480;5.706;2024-01-15T01:08:13;1.30;99.90
42715;DHT22;28351;51.480;5.706;2024-01-15T01:10:39;1.30;99.90
42715;DHT22;28351;51.480;5.706;2024-01-15T01:13:05;1.30;99.90
42715;DHT22;28351;51.480;5.706;2024-01-15T01:15:30;1.30;99.90
42715;DHT22;28351;51.480;5.706;2024-01-15T01:17:56;1.30;99.90
42715;DHT22;28351;51.480;5.706;2024-01-15T01:20:27;1.30;99.90
42715;DHT22;28351;51.480;5.706;2024-01-15T01:22:53;1.30;99.90
42715;DHT22;28351;51.480;5.706;2024-01-15T01:25:19;1.30;99.90
42715;DHT22;28351;51.480;5.706;2024-01-15T01:27:44;1.20;99.90
42715;DHT22;28351;51.480;5.706;2024-01-15T01:30:10;1.20;99.90
42715;DHT22;28351;51.480;5.706;2024-01-15T01:32:35;1.30;99.90
42715;DHT22;28351;51.480;5.706;2024-01-15T01:35:01;1.30;99.90
42715;DHT22;28351;51.480;5.706;2024-01-15T01:37:27;1.30;99.90
42715;DHT22;28351;51.480;5.706;2024-01-15T01:39:52;1.30;99.90
42715;DHT22;28351;51.480;5.706;2024-01-15T01:42:18;1.30;99.90
42715;DHT22;28351;51.480;5.706;2024-01-15T01:44:43;1.30;99.90
42715;DHT22;28351;51.480;5.706;2024-01-15T01:47:09;1.30;99.90
42715;DHT22;28351;51.480;5.706;2024-01-15T01:49:35;1.30;99.90
42715;DHT22;28351;51.480;5.706;2024-01-15T01:52:04;1.20;99.90
42715;DHT22;28351;51.480;5.706;2024-01-15T01:54:31;1.20;99.90
42715;DHT22;28351;51.480;5.706;2024-01-15T01:56:57;1.20;99.90
42715;DHT22;28351;51.480;5.706;2024-01-15T01:59:23;1.20;99.90
42715;DHT22;28351;51.480;5.706;2024-01-15T02:01:56;1.20;99.90
42715;DHT22;28351;51.480;5.706;2024-01-15T02:04:23;1.20;99.90
42715;DHT22;28351;51.480;5.706;2024-01-15T02:06:49;1.20;99.90
42715;DHT22;28351;51.480;5.706;2024-01-15T02:09:16;1.20;99.90
42715;DHT22;28351;51.480;5.706;2024-01-15T02:11:42;1.20;99.90
42715;DHT22;28351;51.480;5.706;2024-01-15T02:14:08;1.20;99.90
42715;DHT22;28351;51.480;5.706;2024-01-15T02:16:34;1.10;99.90
42715;DHT22;28351;51.480;5.706;2024-01-15T02:19:00;1.10;99.90
42715;DHT22;28351;51.480;5.706;2024-01-15T02:21:26;1.20;99.90
42715;DHT22;28351;51.480;5.706;2024-01-15T02:23:58;1.20;99.90
42715;DHT22;28351;51.480;5.706;2024-01-15T02:26:24;1.20;99.90
42715;DHT22;28351;51.480;5.706;2024-01-15T02:28:49;1.10;99.90
42715;DHT22;28351;51.480;5.706;2024-01-15T02:31:15;1.10;99.90
42715;DHT22;28351;51.480;5.706;2024-01-15T02:33:42;1.10;99.90
42715;DHT22;28351;51.480;5.706;2024-01-15T02:36:07;1.10;99.90
42715;DHT22;28351;51.480;5.706;2024-01-15T02:38:33;1.00;99.90
42715;DHT22;28351;51.480;5.706;2024-01-15T02:40:59;1.00;99.90
42715;DHT22;28351;51.480;5.706;2024-01-15T02:43:24;1.10;99.90
42715;DHT22;28351;51.480;5.706;2024-01-15T02:45:50;1.10;99.90
42715;DHT22;28351;51.480;5.706;2024-01-15T02:48:17;1.10;99.90
42715;DHT22;28351;51.480;5.706;2024-01-15T02:50:48;1.10;99.90
42715;DHT22;28351;51.480;5.706;2024-01-15T02:53:14;1.00;99.90
42715;DHT22;28351;51.480;5.706;2024-01-15T02:55:42;1.10;99.90
42715;DHT22;28351;51.480;5.706;2024-01-15T02:58:08;1.00;99.90
42715;DHT22;28351;51.480;5.706;2024-01-15T03:00:39;1.00;99.90
42715;DHT22;28351;51.480;5.706;2024-01-15T03:03:05;0.90;99.90
42715;DHT22;28351;51.480;5.706;2024-01-15T03:05:30;0.80;99.90
42715;DHT22;28351;51.480;5.706;2024-01-15T03:07:56;0.90;99.90
42715;DHT22;28351;51.480;5.706;2024-01-15T03:10:21;0.90;99.90
42715;DHT22;28351;51.480;5.706;2024-01-15T03:12:47;0.90;99.90
42715;DHT22;28351;51.480;5.706;2024-01-15T03:15:12;0.90;99.90
42715;DHT22;28351;51.480;5.706;2024-01-15T03:17:38;0.90;99.90
42715;DHT22;28351;51.480;5.706;2024-01-15T03:20:04;0.80;99.90
42715;DHT22;28351;51.480;5.706;2024-01-15T03:22:29;0.90;99.90
42715;DHT22;28351;51.480;5.706;2024-01-15T03:24:55;0.90;99.90
42715;DHT22;28351;51.480;5.706;2024-01-15T03:27:20;0.90;99.90
42715;DHT22;28351;51.480;5.706;2024-01-15T03:29:46;0.90;99.90
42715;DHT22;28351;51.480;5.706;2024-01-15T03:32:11;1.00;99.90
42715;DHT22;28351;51.480;5.706;2024-01-15T03:34:37;0.90;99.90
42715;DHT22;28351;51.480;5.706;2024-01-15T03:37:02;0.90;99.90
42715;DHT22;28351;51.480;5.706;2024-01-15T03:39:28;0.90;99.90
42715;DHT22;28351;51.480;5.706;2024-01-15T03:41:54;1.00;99.90
42715;DHT22;28351;51.480;5.706;2024-01-15T03:44:20;1.00;99.90
42715;DHT22;28351;51.480;5.706;2024-01-15T03:46:46;0.90;99.90
42715;DHT22;28351;51.480;5.706;2024-01-15T03:49:13;0.90;99.90
42715;DHT22;28351;51.480;5.706;2024-01-15T03:51:39;0.90;99.90
42715;DHT22;28351;51.480;5.706;2024-01-15T03:54:04;0.90;99.90
42715;DHT22;28351;51.480;5.706;2024-01-15T03:56:30;0.80;99.90
42715;DHT22;28351;51.480;5.706;2024-01-15T03:58:55;0.90;99.90
42715;DHT22;28351;51.480;5.706;2024-01-15T04:01:21;0.80;99.90
42715;DHT22;28351;51.480;5.706;2024-01-15T04:03:46;0.90;99.90
42715;DHT22;28351;51.480;5.706;2024-01-15T04:06:12;0.90;99.90
42715;DHT22;28351;51.480;5.706;2024-01-15T04:08:37;1.00;99.90
42715;DHT22;28351;51.480;5.706;2024-01-15T04:11:03;1.10;99.90
42715;DHT22;28351;51.480;5.706;2024-01-15T04:13:31;1.20;99.90
42715;DHT22;28351;51.480;5.706;2024-01-15T04:15:57;1.20;99.90
42715;DHT22;28351;51.480;5.706;2024-01-15T04:18:23;1.30;99.90
42715;DHT22;28351;51.480;5.706;2024-01-15T04:20:48;1.30;99.90
42715;DHT22;28351;51.480;5.706;2024-01-15T04:23:14;1.30;99.90
42715;DHT22;28351;51.480;5.706;2024-01-15T04:25:39;1.30;99.90
42715;DHT22;28351;51.480;5.706;2024-01-15T04:28:08;1.30;99.90
42715;DHT22;28351;51.480;5.706;2024-01-15T04:30:33;1.40;99.90
42715;DHT22;28351;51.480;5.706;2024-01-15T04:32:59;1.40;99.90
42715;DHT22;28351;51.480;5.706;2024-01-15T04:35:24;1.50;99.90
42715;DHT22;28351;51.480;5.706;2024-01-15T04:37:50;1.40;99.90
42715;DHT22;28351;51.480;5.706;2024-01-15T04:40:17;1.50;99.90
42715;DHT22;28351;51.480;5.706;2024-01-15T04:42:42;1.50;99.90
42715;DHT22;28351;51.480;5.706;2024-01-15T04:45:08;1.50;99.90
42715;DHT22;28351;51.480;5.706;2024-01-15T04:47:33;1.50;99.90
42715;DHT22;28351;51.480;5.706;2024-01-15T04:50:02;1.50;99.90
42715;DHT22;28351;51.480;5.706;2024-01-15T04:52:28;1.50;99.90
42715;DHT22;28351;51.480;5.706;2024-01-15T04:54:53;1.50;99.90
42715;DHT22;28351;51.480;5.706;2024-01-15T04:57:19;1.50;99.90
42715;DHT22;28351;51.480;5.706;2024-01-15T04:59:44;1.50;99.90
42715;DHT22;28351;51.480;5.706;2024-01-15T05:02:10;1.60;99.90
42715;DHT22;28351;51.480;5.706;2024-01-15T05:04:35;1.60;99.90
42715;DHT22;28351;51.480;5.706;2024-01-15T05:07:01;1.60;99.90
42715;DHT22;28351;51.480;5.706;2024-01-15T05:09:26;1.60;99.90
42715;DHT22;28351;51.480;5.706;2024-01-15T05:11:52;1.60;99.90
42715;DHT22;28351;51.480;5.706;2024-01-15T05:14:17;1.60;99.90
42715;DHT22;28351;51.480;5.706;2024-01-15T05:16:49;1.60;99.90
42715;DHT22;28351;51.480;5.706;2024-01-15T05:19:15;1.60;99.90
42715;DHT22;28351;51.480;5.706;2024-01-15T05:21:40;1.50;99.90
42715;DHT22;28351;51.480;5.706;2024-01-15T05:24:09;1.50;99.90
42715;DHT22;28351;51.480;5.706;2024-01-15T05:26:34;1.40;99.90
42715;DHT22;28351;51.480;5.706;2024-01-15T05:29:01;1.50;99.90
42715;DHT22;28351;51.480;5.706;2024-01-15T05:31:27;1.40;99.90
42715;DHT22;28351;51.480;5.706;2024-01-15T05:33:52;1.40;99.90
42715;DHT22;28351;51.480;5.706;2024-01-15T05:36:19;1.50;99.90
42715;DHT22;28351;51.480;5.706;2024-01-15T05:38:45;1.40;99.90
42715;DHT22;28351;51.480;5.706;2024-01-15T05:41:11;1.40;99.90
42715;DHT22;28351;51.480;5.706;2024-01-15T05:43:38;1.30;99.90
42715;DHT22;28351;51.480;5.706;2024-01-15T05:46:03;1.40;99.90
42715;DHT22;28351;51.480;5.706;2024-01-15T05:48:29;1.40;99.90
42715;DHT22;28351;51.480;5.706;2024-01-15T05:50:54;1.30;99.90
42715;DHT22;28351;51.480;5.706;2024-01-15T05:53:20;1.30;99.90
42715;DHT22;28351;51.480;5.706;2024-01-15T05:55:45;1.30;99.90
42715;DHT22;28351;51.480;5.706;2024-01-15T05:58:11;1.30;99.90
42715;DHT22;28351;51.480;5.706;2024-01-15T06:00:37;1.30;99.90
42715;DHT22;28351;51.480;5.706;2024-01-15T06:03:03;1.30;99.90
42715;DHT22;28351;51.480;5.706;2024-01-15T06:05:32;1.20;99.90
42715;DHT22;28351;51.480;5.706;2024-01-15T06:07:57;1.20;99.90
42715;DHT22;28351;51.480;5.706;2024-01-15T06:10:23;1.20;99.90
42715;DHT22;28351;51.480;5.706;2024-01-15T06:12:48;1.30;99.90
42715;DHT22;28351;51.480;5.706;2024-01-15T06:15:14;1.30;99.90
42715;DHT22;28351;51.480;5.706;2024-01-15T06:17:39;1.30;99.90
42715;DHT22;28351;51.480;5.706;2024-01-15T06:20:05;1.20;99.90
42715;DHT22;28351;51.480;5.706;2024-01-15T06:22:31;1.20;99.90
42715;DHT22;28351;51.480;5.706;2024-01-15T06:24:57;1.20;99.90
42715;DHT22;28351;51.480;5.706;2024-01-15T06:27:23;1.20;99.90
42715;DHT22;28351;51.480;5.706;2024-01-15T06:29:49;1.20;99.90
42715;DHT22;28351;51.480;5.706;2024-01-15T06:32:14;1.20;99.90
42715;DHT22;28351;51.480;5.706;2024-01-15T06:34:40;1.10;99.90
42715;DHT22;28351;51.480;5.706;2024-01-15T06:37:05;1.10;99.90
42715;DHT22;28351;51.480;5.706;2024-01-15T06:39:31;1.10;99.90
42715;DHT22;28351;51.480;5.706;2024-01-15T06:41:57;1.10;99.90
42715;DHT22;28351;51.480;5.706;2024-01-15T06:44:22;1.10;99.90
42715;DHT22;28351;51.480;5.706;2024-01-15T06:46:48;1.10;99.90
42715;DHT22;28351;51.480;5.706;2024-01-15T06:49:14;1.10;99.90
42715;DHT22;28351;51.480;5.706;2024-01-15T06:51:39;1.20;99.90
42715;DHT22;28351;51.480;5.706;2024-01-15T06:54:05;1.20;99.90
42715;DHT22;28351;51.480;5.706;2024-01-15T06:56:33;1.30;99.90
42715;DHT22;28351;51.480;5.706;2024-01-15T06:58:59;1.30;99.90
42715;DHT22;28351;51.480;5.706;2024-01-15T07:01:24;1.30;99.90
42715;DHT22;28351;51.480;5.706;2024-01-15T07:03:51;1.30;99.90
42715;DHT22;28351;51.480;5.706;2024-01-15T07:06:16;1.40;99.90
42715;DHT22;28351;51.480;5.706;2024-01-15T07:08:42;1.40;99.90
42715;DHT22;28351;51.480;5.706;2024-01-15T07:11:08;1.40;99.90
42715;DHT22;28351;51.480;5.706;2024-01-15T07:13:34;1.40;99.90
42715;DHT22;28351;51.480;5.706;2024-01-15T07:15:59;1.30;99.90
42715;DHT22;28351;51.480;5.706;2024-01-15T07:18:25;1.30;99.90
42715;DHT22;28351;51.480;5.706;2024-01-15T07:20:51;1.30;99.90
42715;DHT22;28351;51.480;5.706;2024-01-15T07:23:17;1.30;99.90
42715;DHT22;28351;51.480;5.706;2024-01-15T07:25:43;1.30;99.90
42715;DHT22;28351;51.480;5.706;2024-01-15T07:28:11;1.30;99.90
42715;DHT22;28351;51.480;5.706;2024-01-15T07:30:39;1.30;99.90
42715;DHT22;28351;51.480;5.706;2024-01-15T07:33:05;1.20;99.90
42715;DHT22;28351;51.480;5.706;2024-01-15T07:35:31;1.20;99.90
42715;DHT22;28351;51.480;5.706;2024-01-15T07:37:57;1.20;99.90
42715;DHT22;28351;51.480;5.706;2024-01-15T07:40:22;1.10;99.90
42715;DHT22;28351;51.480;5.706;2024-01-15T07:42:48;1.10;99.90
42715;DHT22;28351;51.480;5.706;2024-01-15T07:45:13;1.00;99.90
42715;DHT22;28351;51.480;5.706;2024-01-15T07:47:39;1.00;99.90
42715;DHT22;28351;51.480;5.706;2024-01-15T07:50:04;0.90;99.90
42715;DHT22;28351;51.480;5.706;2024-01-15T07:52:30;1.00;99.90
42715;DHT22;28351;51.480;5.706;2024-01-15T07:54:56;1.00;99.90
42715;DHT22;28351;51.480;5.706;2024-01-15T07:57:21;1.00;99.90
42715;DHT22;28351;51.480;5.706;2024-01-15T07:59:48;1.00;99.90
42715;DHT22;28351;51.480;5.706;2024-01-15T08:02:13;1.10;99.90
42715;DHT22;28351;51.480;5.706;2024-01-15T08:04:39;1.10;99.90
42715;DHT22;28351;51.480;5.706;2024-01-15T08:07:04;1.00;99.90
42715;DHT22;28351;51.480;5.706;2024-01-15T08:09:32;1.00;99.90
42715;DHT22;28351;51.480;5.706;2024-01-15T08:11:58;1.00;99.90
42715;DHT22;28351;51.480;5.706;2024-01-15T08:14:23;1.00;99.90
42715;DHT22;28351;51.480;5.706;2024-01-15T08:16:49;1.00;99.90
42715;DHT22;28351;51.480;5.706;2024-01-15T08:19:18;1.10;99.90
42715;DHT22;28351;51.480;5.706;2024-01-15T08:21:45;1.10;99.90
42715;DHT22;28351;51.480;5.706;2024-01-15T08:24:10;1.10;99.90
42715;DHT22;28351;51.480;5.706;2024-01-15T08:26:36;1.20;99.90
42715;DHT22;28351;51.480;5.706;2024-01-15T08:29:02;1.20;99.90
42715;DHT22;28351;51.480;5.706;2024-01-15T08:31:28;1.20;99.90
42715;DHT22;28351;51.480;5.706;2024-01-15T08:33:53;1.20;99.90
42715;DHT22;28351;51.480;5.706;2024-01-15T08:36:19;1.30;99.90
42715;DHT22;28351;51.480;5.706;2024-01-15T08:38:44;1.30;99.90
42715;DHT22;28351;51.480;5.706;2024-01-15T08:41:10;1.10;99.90
42715;DHT22;28351;51.480;5.706;2024-01-15T08:43:36;1.10;99.90
42715;DHT22;28351;51.480;5.706;2024-01-15T08:46:02;1.10;99.90
42715;DHT22;28351;51.480;5.706;2024-01-15T08:48:28;1.10;99.90
42715;DHT22;28351;51.480;5.706;2024-01-15T08:50:54;1.00;99.90
42715;DHT22;28351;51.480;5.706;2024-01-15T08:53:20;1.00;99.90
42715;DHT22;28351;51.480;5.706;2024-01-15T08:55:46;1.00;99.90
42715;DHT22;28351;51.480;5.706;2024-01-15T08:58:11;1.00;99.90
42715;DHT22;28351;51.480;5.706;2024-01-15T09:00:42;1.10;99.90
42715;DHT22;28351;51.480;5.706;2024-01-15T09:03:07;1.10;99.90
42715;DHT22;28351;51.480;5.706;2024-01-15T09:05:34;1.20;99.90
42715;DHT22;28351;51.480;5.706;2024-01-15T09:08:00;1.10;99.90
42715;DHT22;28351;51.480;5.706;2024-01-15T09:10:26;1.20;99.90
42715;DHT22;28351;51.480;5.706;2024-01-15T09:12:54;1.20;99.90
42715;DHT22;28351;51.480;5.706;2024-01-15T09:15:20;1.20;99.90
42715;DHT22;28351;51.480;5.706;2024-01-15T09:17:45;1.30;99.90
42715;DHT22;28351;51.480;5.706;2024-01-15T09:20:11;1.30;99.90
42715;DHT22;28351;51.480;5.706;2024-01-15T09:22:40;1.30;99.90
42715;DHT22;28351;51.480;5.706;2024-01-15T09:25:08;1.30;99.90
42715;DHT22;28351;51.480;5.706;2024-01-15T09:27:35;1.40;99.90
42715;DHT22;28351;51.480;5.706;2024-01-15T09:30:01;1.40;99.90
42715;DHT22;28351;51.480;5.706;2024-01-15T09:32:26;1.40;99.90
42715;DHT22;28351;51.480;5.706;2024-01-15T09:34:52;1.40;99.90
42715;DHT22;28351;51.480;5.706;2024-01-15T09:37:17;1.50;99.90
42715;DHT22;28351;51.480;5.706;2024-01-15T09:39:43;1.50;99.90
42715;DHT22;28351;51.480;5.706;2024-01-15T09:42:09;1.50;99.90
42715;DHT22;28351;51.480;5.706;2024-01-15T09:44:36;1.50;99.90
42715;DHT22;28351;51.480;5.706;2024-01-15T09:47:02;1.60;99.90
42715;DHT22;28351;51.480;5.706;2024-01-15T09:49:27;1.60;99.90
42715;DHT22;28351;51.480;5.706;2024-01-15T09:51:53;1.70;99.90
42715;DHT22;28351;51.480;5.706;2024-01-15T09:54:19;1.70;99.90
42715;DHT22;28351;51.480;5.706;2024-01-15T09:56:46;1.80;99.90
42715;DHT22;28351;51.480;5.706;2024-01-15T09:59:21;1.80;99.90
42715;DHT22;28351;51.480;5.706;2024-01-15T10:01:48;1.70;99.90
42715;DHT22;28351;51.480;5.706;2024-01-15T10:04:15;1.70;99.90
42715;DHT22;28351;51.480;5.706;2024-01-15T10:06:47;1.70;99.90
42715;DHT22;28351;51.480;5.706;2024-01-15T10:09:14;1.80;99.90
42715;DHT22;28351;51.480;5.706;2024-01-15T10:11:43;1.80;99.90
42715;DHT22;28351;51.480;5.706;2024-01-15T10:14:09;1.80;99.90
42715;DHT22;28351;51.480;5.706;2024-01-15T10:16:38;1.80;99.90
42715;DHT22;28351;51.480;5.706;2024-01-15T10:19:03;1.70;99.90
42715;DHT22;28351;51.480;5.706;2024-01-15T10:21:33;1.70;99.90
42715;DHT22;28351;51.480;5.706;2024-01-15T10:24:02;1.70;99.90
42715;DHT22;28351;51.480;5.706;2024-01-15T10:26:28;1.80;99.90
42715;DHT22;28351;51.480;5.706;2024-01-15T10:28:54;1.80;99.90
42715;DHT22;28351;51.480;5.706;2024-01-15T10:31:20;2.00;99.90
42715;DHT22;28351;51.480;5.706;2024-01-15T10:33:49;2.10;99.90
42715;DHT22;28351;51.480;5.706;2024-01-15T10:36:15;2.00;99.90
42715;DHT22;28351;51.480;5.706;2024-01-15T10:38:41;2.10;99.90
42715;DHT22;28351;51.480;5.706;2024-01-15T10:41:08;2.30;99.90
42715;DHT22;28351;51.480;5.706;2024-01-15T10:43:33;2.40;99.90
42715;DHT22;28351;51.480;5.706;2024-01-15T10:45:59;2.70;99.90
42715;DHT22;28351;51.480;5.706;2024-01-15T10:48:25;2.70;99.90
42715;DHT22;28351;51.480;5.706;2024-01-15T10:50:51;2.90;99.90
42715;DHT22;28351;51.480;5.706;2024-01-15T10:53:17;2.80;99.90
42715;DHT22;28351;51.480;5.706;2024-01-15T10:55:43;2.80;99.90
42715;DHT22;28351;51.480;5.706;2024-01-15T10:58:08;2.70;99.90
42715;DHT22;28351;51.480;5.706;2024-01-15T11:00:37;2.70;99.90
42715;DHT22;28351;51.480;5.706;2024-01-15T11:03:03;2.70;99.90
42715;DHT22;28351;51.480;5.706;2024-01-15T11:05:36;2.80;99.90
42715;DHT22;28351;51.480;5.706;2024-01-15T11:08:05;2.90;99.90
42715;DHT22;28351;51.480;5.706;2024-01-15T11:10:37;2.70;99.90
42715;DHT22;28351;51.480;5.706;2024-01-15T11:13:03;2.60;99.90
42715;DHT22;28351;51.480;5.706;2024-01-15T11:15:28;2.50;99.90
42715;DHT22;28351;51.480;5.706;2024-01-15T11:17:58;2.50;99.90
42715;DHT22;28351;51.480;5.706;2024-01-15T11:20:24;2.50;99.90
42715;DHT22;28351;51.480;5.706;2024-01-15T11:22:50;2.60;99.90
42715;DHT22;28351;51.480;5.706;2024-01-15T11:25:18;2.60;99.90
42715;DHT22;28351;51.480;5.706;2024-01-15T11:27:45;2.60;99.90
42715;DHT22;28351;51.480;5.706;2024-01-15T11:30:17;2.60;99.90
42715;DHT22;28351;51.480;5.706;2024-01-15T11:32:42;2.90;99.90
42715;DHT22;28351;51.480;5.706;2024-01-15T11:35:08;2.90;99.90
42715;DHT22;28351;51.480;5.706;2024-01-15T11:40:20;3.20;99.90
42715;DHT22;28351;51.480;5.706;2024-01-15T11:42:46;3.50;99.90
42715;DHT22;28351;51.480;5.706;2024-01-15T11:45:16;3.70;99.90
42715;DHT22;28351;51.480;5.706;2024-01-15T11:50:24;3.20;99.90
42715;DHT22;28351;51.480;5.706;2024-01-15T11:52:58;3.00;99.90
42715;DHT22;28351;51.480;5.706;2024-01-15T11:55:34;2.80;99.90
42715;DHT22;28351;51.480;5.706;2024-01-15T11:58:00;2.70;99.90
42715;DHT22;28351;51.480;5.706;2024-01-15T12:00:26;2.60;99.90
42715;DHT22;28351;51.480;5.706;2024-01-15T12:02:53;2.40;99.90
42715;DHT22;28351;51.480;5.706;2024-01-15T12:05:20;2.40;99.90
42715;DHT22;28351;51.480;5.706;2024-01-15T12:07:48;2.40;99.90
42715;DHT22;28351;51.480;5.706;2024-01-15T12:10:15;2.50;99.90
42715;DHT22;28351;51.480;5.706;2024-01-15T12:12:53;2.80;99.90
42715;DHT22;28351;51.480;5.706;2024-01-15T12:15:24;2.70;99.90
42715;DHT22;28351;51.480;5.706;2024-01-15T12:17:50;2.80;99.90
42715;DHT22;28351;51.480;5.706;2024-01-15T12:20:15;2.80;99.90
42715;DHT22;28351;51.480;5.706;2024-01-15T12:22:42;2.90;99.90
42715;DHT22;28351;51.480;5.706;2024-01-15T12:25:09;2.80;99.90
42715;DHT22;28351;51.480;5.706;2024-01-15T12:27:34;2.70;99.90
42715;DHT22;28351;51.480;5.706;2024-01-15T12:30:00;2.60;99.90
42715;DHT22;28351;51.480;5.706;2024-01-15T12:32:25;2.50;99.90
42715;DHT22;28351;51.480;5.706;2024-01-15T12:34:51;2.40;99.90
42715;DHT22;28351;51.480;5.706;2024-01-15T12:37:18;2.10;99.90
42715;DHT22;28351;51.480;5.706;2024-01-15T12:39:44;2.00;99.90
42715;DHT22;28351;51.480;5.706;2024-01-15T12:42:10;2.00;99.90
42715;DHT22;28351;51.480;5.706;2024-01-15T12:44:36;2.00;99.90
42715;DHT22;28351;51.480;5.706;2024-01-15T12:47:04;2.00;99.90
42715;DHT22;28351;51.480;5.706;2024-01-15T12:49:30;2.10;99.90
42715;DHT22;28351;51.480;5.706;2024-01-15T12:52:02;2.10;99.90
42715;DHT22;28351;51.480;5.706;2024-01-15T12:54:27;1.90;99.90
42715;DHT22;28351;51.480;5.706;2024-01-15T12:56:53;1.80;99.90
42715;DHT22;28351;51.480;5.706;2024-01-15T12:59:18;1.70;99.90
42715;DHT22;28351;51.480;5.706;2024-01-15T13:01:44;1.50;99.90
42715;DHT22;28351;51.480;5.706;2024-01-15T13:04:10;1.50;99.90
42715;DHT22;28351;51.480;5.706;2024-01-15T13:06:36;1.40;99.90
42715;DHT22;28351;51.480;5.706;2024-01-15T13:09:04;1.40;99.90
42715;DHT22;28351;51.480;5.706;2024-01-15T13:11:36;1.40;99.90
42715;DHT22;28351;51.480;5.706;2024-01-15T13:14:01;1.30;99.90
42715;DHT22;28351;51.480;5.706;2024-01-15T13:16:36;1.20;99.90
42715;DHT22;28351;51.480;5.706;2024-01-15T13:19:02;1.20;99.90
42715;DHT22;28351;51.480;5.706;2024-01-15T13:21:29;1.20;99.90
42715;DHT22;28351;51.480;5.706;2024-01-15T13:23:57;1.20;99.90
42715;DHT22;28351;51.480;5.706;2024-01-15T13:26:23;1.20;99.90
42715;DHT22;28351;51.480;5.706;2024-01-15T13:28:51;1.20;99.90
42715;DHT22;28351;51.480;5.706;2024-01-15T13:31:17;1.30;99.90
42715;DHT22;28351;51.480;5.706;2024-01-15T13:33:45;1.30;99.90
42715;DHT22;28351;51.480;5.706;2024-01-15T13:36:10;1.30;99.90
42715;DHT22;28351;51.480;5.706;2024-01-15T13:38:36;1.30;99.90
42715;DHT22;28351;51.480;5.706;2024-01-15T13:41:09;1.40;99.90
42715;DHT22;28351;51.480;5.706;2024-01-15T13:43:35;1.30;99.90
42715;DHT22;28351;51.480;5.706;2024-01-15T13:46:01;1.30;99.90
42715;DHT22;28351;51.480;5.706;2024-01-15T13:48:30;1.40;99.90
42715;DHT22;28351;51.480;5.706;2024-01-15T13:51:01;1.30;99.90
42715;DHT22;28351;51.480;5.706;2024-01-15T13:53:37;1.40;99.90
42715;DHT22;28351;51.480;5.706;2024-01-15T13:56:03;1.50;99.90
42715;DHT22;28351;51.480;5.706;2024-01-15T13:58:49;1.80;99.90
42715;DHT22;28351;51.480;5.706;2024-01-15T14:01:15;1.80;99.90
42715;DHT22;28351;51.480;5.706;2024-01-15T14:03:42;1.90;99.90
42715;DHT22;28351;51.480;5.706;2024-01-15T14:06:08;1.90;99.90
42715;DHT22;28351;51.480;5.706;2024-01-15T14:08:37;1.90;99.90
42715;DHT22;28351;51.480;5.706;2024-01-15T14:11:03;1.90;99.90
42715;DHT22;28351;51.480;5.706;2024-01-15T14:13:38;1.90;99.90
42715;DHT22;28351;51.480;5.706;2024-01-15T14:16:04;1.80;99.90
42715;DHT22;28351;51.480;5.706;2024-01-15T14:18:31;1.70;99.90
42715;DHT22;28351;51.480;5.706;2024-01-15T14:20:57;1.60;99.90
42715;DHT22;28351;51.480;5.706;2024-01-15T14:23:24;1.70;99.90
42715;DHT22;28351;51.480;5.706;2024-01-15T14:25:49;1.80;99.90
42715;DHT22;28351;51.480;5.706;2024-01-15T14:28:15;2.10;99.90
42715;DHT22;28351;51.480;5.706;2024-01-15T14:30:41;2.30;99.90
42715;DHT22;28351;51.480;5.706;2024-01-15T14:33:06;2.40;99.90
42715;DHT22;28351;51.480;5.706;2024-01-15T14:35:41;2.70;99.90
42715;DHT22;28351;51.480;5.706;2024-01-15T14:38:06;2.80;99.90
42715;DHT22;28351;51.480;5.706;2024-01-15T14:40:33;2.80;99.90
42715;DHT22;28351;51.480;5.706;2024-01-15T14:43:08;2.70;99.90
42715;DHT22;28351;51.480;5.706;2024-01-15T14:45:33;2.50;99.90
42715;DHT22;28351;51.480;5.706;2024-01-15T14:47:59;2.50;99.90
42715;DHT22;28351;51.480;5.706;2024-01-15T14:50:24;2.30;99.90
42715;DHT22;28351;51.480;5.706;2024-01-15T14:52:50;2.20;99.90
42715;DHT22;28351;51.480;5.706;2024-01-15T14:55:16;1.90;99.90
42715;DHT22;28351;51.480;5.706;2024-01-15T14:57:47;1.80;99.90
42715;DHT22;28351;51.480;5.706;2024-01-15T15:00:14;1.80;99.90
42715;DHT22;28351;51.480;5.706;2024-01-15T15:02:47;1.70;99.90
42715;DHT22;28351;51.480;5.706;2024-01-15T15:05:13;1.80;99.90
42715;DHT22;28351;51.480;5.706;2024-01-15T15:07:45;1.90;99.90
42715;DHT22;28351;51.480;5.706;2024-01-15T15:10:13;2.00;99.90
42715;DHT22;28351;51.480;5.706;2024-01-15T15:12:40;2.00;99.90
42715;DHT22;28351;51.480;5.706;2024-01-15T15:15:07;2.00;99.90
42715;DHT22;28351;51.480;5.706;2024-01-15T15:17:33;2.00;99.90
42715;DHT22;28351;51.480;5.706;2024-01-15T15:20:00;1.90;99.90
42715;DHT22;28351;51.480;5.706;2024-01-15T15:22:27;1.90;99.90
42715;DHT22;28351;51.480;5.706;2024-01-15T15:24:53;1.80;99.90
42715;DHT22;28351;51.480;5.706;2024-01-15T15:27:20;1.80;99.90
42715;DHT22;28351;51.480;5.706;2024-01-15T15:29:47;1.80;99.90
42715;DHT22;28351;51.480;5.706;2024-01-15T15:32:13;1.80;99.90
42715;DHT22;28351;51.480;5.706;2024-01-15T15:34:39;1.60;99.90
42715;DHT22;28351;51.480;5.706;2024-01-15T15:37:05;1.60;99.90
42715;DHT22;28351;51.480;5.706;2024-01-15T15:39:30;1.70;99.90
42715;DHT22;28351;51.480;5.706;2024-01-15T15:42:02;1.60;99.90
42715;DHT22;28351;51.480;5.706;2024-01-15T15:44:27;1.50;99.90
42715;DHT22;28351;51.480;5.706;2024-01-15T15:46:59;1.40;99.90
42715;DHT22;28351;51.480;5.706;2024-01-15T15:49:24;1.40;99.90